Hovedside
METAR-TAF:

METAR-TAF

Lufthavner :

Brønnøysund lufthavn. Brønnøy

Brønnøysund, Norge

breddegrad: 65-28N, lengdegrad: 012-13E, høyde over havet: 0 m

Gjeldene værobservasjon

Denne rapporten ble laget for 35 minutter siden, klokken 04:20 UTC
Vind 18 kt fra Sør-sørvest
Temperatur 8°C
Luftfuktighet 100%
Trykk 1013 hPa
Sikt 10 km eller mer
Få skyer i en høyde av 1700 ft
Brutte skyer i en høyde av 3400 ft
regnbyger i nærheten

METAR: ENBN 160420Z 20018KT 9999 VCSH FEW017 BKN034 08/08 Q1013

Tid: 06:55 (04:55 UTC)

Varsel

Denne rapporten ble laget for 13 timer og 26 minutter siden, klokken 15:29 UTC
Varsel gyldig fra 15. klokken 15 UTC til 15. klokken 20 UTC
Vind 8 kt fra Sør
Sikt 10 km eller mer
Få skyer i en høyde av 1000 ft
Brutte skyer i en høyde av 3000 ft

TAF: ENBN 151529Z 1515/1520 18008KT 9999 FEW010 BKN030

Værobservasjoner og værvarsel for over 4000 flyplasser (METAR- og TAF-rapporter).

Tilgjengelige stasjoner er representert av de røde og gule prikkene på kartet.

Hold musepekeren over prikken for å se navnet på stasjonen.

Klikk så for å se værobservasjoner og -varsler.

For å forandre kartet kan du klikke på den grønne knappen med svart kryss for å zoome inn, på den grønne knappen med strek for å zoome ut, eller på de grønne pilene for å se tilstøtende kart.


METAR-TAF: